This is the latest recevied weather packets stored in our database for station/object DO7ZT-10. If no packets are shown the sender has not sent any weather packets the latest 10 day(s).
| Time | Temp. | Humidity | Pressure | Rain* | Wind** | Luminosity | Snow |
|---|---|---|---|---|---|---|---|
| 1777449844 | 9.44° C | 32% | 1028.4 hPa | - | - | - | - |
| 1777448944 | 8.89° C | 33% | 1028.4 hPa | - | - | - | - |
| 1777448044 | 7.78° C | 37% | 1028.3 hPa | - | - | - | - |
| 1777447144 | 7.22° C | 38% | 1028.3 hPa | - | - | - | - |
| 1777446244 | 7.22° C | 43% | 1028 hPa | - | - | - | - |
| 1777445344 | 6.67° C | 43% | 1028 hPa | - | - | - | - |
| 1777444444 | 6.11° C | 45% | 1027.7 hPa | - | - | - | - |
| 1777443544 | 5.56° C | 46% | 1027.5 hPa | - | - | - | - |
| 1777442644 | 5.56° C | 48% | 1027.5 hPa | - | - | - | - |
| 1777441744 | 5° C | 51% | 1027.4 hPa | - | - | - | - |
| 1777440843 | 4.44° C | 55% | 1027.1 hPa | - | - | - | - |
| 1777439943 | 3.89° C | 56% | 1027 hPa | - | - | - | - |
| 1777439043 | 3.33° C | 58% | 1026.8 hPa | - | - | - | - |
| 1777438143 | 1.67° C | 64% | 1026.7 hPa | - | - | - | - |
| 1777437243 | 1.11° C | 66% | 1026.6 hPa | - | - | - | - |
| 1777436343 | 1.67° C | 65% | 1026.6 hPa | - | - | - | - |
| 1777435443 | 1.11° C | 65% | 1026.5 hPa | - | - | - | - |
| 1777434543 | 1.67° C | 63% | 1026.3 hPa | - | - | - | - |
| 1777433643 | 1.67° C | 62% | 1026.2 hPa | - | - | - | - |
| 1777432743 | 3.33° C | 58% | 1026 hPa | - | - | - | - |
| 1777431843 | 3.33° C | 56% | 1025.8 hPa | - | - | - | - |
| 1777430943 | 3.33° C | 56% | 1025.7 hPa | - | - | - | - |
| 1777430043 | 2.78° C | 58% | 1025.7 hPa | - | - | - | - |
| 1777429143 | 1.67° C | 62% | 1025.7 hPa | - | - | - | - |
| 1777428242 | 1.67° C | 62% | 1025.7 hPa | - | - | - | - |
* Rain since midnight (hover to see other rain measurements)
** Current wind speed in m/s (hover to see current wind gust speed)